createdAt,value
2022-08-19T00:00:16.124Z,25.63
2022-08-19T00:02:50.434Z,25.61
2022-08-19T00:05:20.653Z,25.59
2022-08-19T00:07:50.293Z,25.58
2022-08-19T00:10:19.746Z,25.54
2022-08-19T00:12:48.728Z,25.55
2022-08-19T00:15:20.823Z,25.58
2022-08-19T00:17:49.903Z,25.58
2022-08-19T00:20:20.744Z,25.57
2022-08-19T00:22:49.336Z,25.55
2022-08-19T00:25:18.676Z,25.55
2022-08-19T00:27:59.695Z,25.54
2022-08-19T00:30:28.334Z,25.52
2022-08-19T00:32:57.040Z,25.50
2022-08-19T00:35:27.574Z,25.47
2022-08-19T00:37:56.596Z,25.45
2022-08-19T00:40:25.907Z,25.43
2022-08-19T00:42:54.503Z,25.40
2022-08-19T00:45:26.853Z,25.37
2022-08-19T00:47:55.268Z,25.39
2022-08-19T00:50:25.232Z,25.41
2022-08-19T00:52:54.145Z,25.40
2022-08-19T00:55:25.098Z,25.40
2022-08-19T00:57:58.958Z,25.38
2022-08-19T01:00:28.741Z,25.36
2022-08-19T01:02:57.376Z,25.33
2022-08-19T01:05:29.982Z,25.32
2022-08-19T01:08:01.734Z,25.30
2022-08-19T01:10:36.781Z,25.27
2022-08-19T01:13:06.207Z,25.24
2022-08-19T01:15:42.731Z,25.22
2022-08-19T01:18:13.706Z,25.20
2022-08-19T01:20:43.285Z,25.17
2022-08-19T01:23:12.710Z,25.15
2022-08-19T01:25:46.200Z,25.15
2022-08-19T01:28:33.631Z,25.12
2022-08-19T01:31:11.877Z,25.10
2022-08-19T01:33:58.154Z,25.09
2022-08-19T01:36:32.539Z,25.08
2022-08-19T01:39:03.296Z,25.08
2022-08-19T01:41:31.644Z,25.06
2022-08-19T01:44:13.644Z,25.03
2022-08-19T01:46:48.719Z,24.99
2022-08-19T01:49:19.559Z,24.95
2022-08-19T01:51:49.849Z,24.90
2022-08-19T01:54:23.107Z,24.87
2022-08-19T01:57:00.205Z,24.82
2022-08-19T01:59:29.204Z,24.76
2022-08-19T02:01:57.696Z,24.71
2022-08-19T02:04:27.536Z,24.67
2022-08-19T02:06:55.892Z,24.63
2022-08-19T02:09:24.556Z,24.60
2022-08-19T02:11:53.790Z,24.56
2022-08-19T02:14:22.149Z,24.53
2022-08-19T02:16:50.885Z,24.49
2022-08-19T02:19:19.241Z,24.48
2022-08-19T02:21:48.256Z,24.46
2022-08-19T02:24:16.566Z,24.43
2022-08-19T02:26:44.895Z,24.39
2022-08-19T02:29:13.229Z,24.35
2022-08-19T02:31:41.644Z,24.30
2022-08-19T02:34:10.196Z,24.28
2022-08-19T02:36:42.406Z,24.23
2022-08-19T02:39:11.209Z,24.17
2022-08-19T02:41:39.853Z,24.12
2022-08-19T02:44:29.565Z,24.07
2022-08-19T02:46:56.611Z,24.01
2022-08-19T02:49:25.022Z,23.99
2022-08-19T02:51:53.456Z,23.97
2022-08-19T02:54:21.907Z,23.95
2022-08-19T02:56:51.132Z,23.91
2022-08-19T02:59:21.132Z,23.88
2022-08-19T03:01:51.690Z,23.87
2022-08-19T03:04:20.687Z,23.85
2022-08-19T03:06:49.726Z,23.85
2022-08-19T03:09:19.979Z,23.84
2022-08-19T03:11:48.703Z,23.82
2022-08-19T03:14:21.198Z,23.79
2022-08-19T03:16:52.793Z,23.76
2022-08-19T03:19:22.028Z,23.72
2022-08-19T03:21:50.998Z,23.70
2022-08-19T03:24:20.749Z,23.68
2022-08-19T03:26:51.691Z,23.67
2022-08-19T03:29:30.370Z,23.65
2022-08-19T03:32:01.435Z,23.63
2022-08-19T03:34:32.949Z,23.61
2022-08-19T03:37:06.447Z,23.61
2022-08-19T03:39:36.737Z,23.62
2022-08-19T03:42:38.545Z,23.62
2022-08-19T03:44:54.416Z,23.63
2022-08-19T03:47:22.784Z,23.64
2022-08-19T03:49:51.282Z,23.65
2022-08-19T03:52:20.152Z,23.67
2022-08-19T03:54:48.615Z,23.69
2022-08-19T03:57:16.948Z,23.72
2022-08-19T03:59:45.425Z,23.76
2022-08-19T04:02:14.081Z,23.78
2022-08-19T04:04:43.890Z,23.81
2022-08-19T04:07:16.048Z,23.84
2022-08-19T04:09:44.729Z,23.88
2022-08-19T04:12:13.463Z,23.93
2022-08-19T04:14:42.299Z,23.99
2022-08-19T04:17:13.290Z,24.05
2022-08-19T04:19:43.235Z,24.09
2022-08-19T04:22:11.987Z,24.18
2022-08-19T04:24:40.861Z,24.32
2022-08-19T04:27:09.409Z,24.52
2022-08-19T04:29:39.934Z,24.72
2022-08-19T04:32:09.814Z,24.90
2022-08-19T04:35:15.805Z,25.10
2022-08-19T04:37:34.693Z,25.31
2022-08-19T04:40:26.486Z,25.51
2022-08-19T04:42:55.231Z,25.73
2022-08-19T04:45:23.968Z,25.94
2022-08-19T04:47:58.901Z,26.12
2022-08-19T04:50:46.101Z,26.30
2022-08-19T04:53:14.564Z,26.47
2022-08-19T04:55:43.649Z,26.63
2022-08-19T04:58:12.113Z,26.78
2022-08-19T05:00:41.217Z,26.93
2022-08-19T05:03:10.681Z,27.05
2022-08-19T05:05:45.157Z,27.04
2022-08-19T05:08:18.884Z,27.00
2022-08-19T05:11:00.183Z,26.93
2022-08-19T05:13:28.813Z,26.86
2022-08-19T05:15:58.646Z,26.78
2022-08-19T05:18:46.524Z,26.68
2022-08-19T05:21:36.623Z,26.59
2022-08-19T05:24:09.270Z,26.52
2022-08-19T05:26:37.976Z,26.46
2022-08-19T05:29:07.779Z,26.50
2022-08-19T05:31:39.173Z,26.63
2022-08-19T05:34:18.568Z,26.87
2022-08-19T05:36:51.634Z,27.15
2022-08-19T05:39:21.909Z,27.44
2022-08-19T05:41:52.987Z,27.78
2022-08-19T05:44:22.526Z,28.06
2022-08-19T05:46:53.242Z,28.38
2022-08-19T05:49:23.447Z,28.67
2022-08-19T05:51:51.994Z,28.98
2022-08-19T05:54:20.573Z,29.32
2022-08-19T05:56:49.549Z,29.66
2022-08-19T05:59:22.024Z,29.96
2022-08-19T06:01:56.014Z,30.23
2022-08-19T06:04:25.724Z,30.45
2022-08-19T06:06:56.664Z,30.65
2022-08-19T06:09:25.187Z,30.90
2022-08-19T06:11:56.283Z,31.14
2022-08-19T06:14:27.778Z,31.43
2022-08-19T06:16:57.023Z,31.63
2022-08-19T06:19:25.881Z,31.78
2022-08-19T06:21:54.499Z,31.98
2022-08-19T06:24:24.988Z,32.22
2022-08-19T06:26:59.192Z,32.43
2022-08-19T06:29:31.803Z,32.61
2022-08-19T06:32:01.714Z,32.82
2022-08-19T06:34:32.921Z,33.01
2022-08-19T06:37:06.129Z,33.16
2022-08-19T06:39:38.985Z,33.21
2022-08-19T06:42:11.791Z,33.32
2022-08-19T06:44:43.676Z,33.53
2022-08-19T06:47:23.885Z,33.75
2022-08-19T06:50:02.854Z,33.94
2022-08-19T06:52:34.113Z,34.22
2022-08-19T06:55:06.197Z,34.46
2022-08-19T06:57:35.566Z,34.51
2022-08-19T07:00:12.288Z,34.65
2022-08-19T07:02:42.624Z,34.68
2022-08-19T07:05:12.096Z,34.65
2022-08-19T07:07:43.513Z,34.75
2022-08-19T07:10:16.369Z,34.73
2022-08-19T07:12:45.637Z,34.40
2022-08-19T07:15:16.016Z,34.02
2022-08-19T07:17:44.655Z,33.57
2022-08-19T07:20:16.797Z,33.18
2022-08-19T07:22:47.842Z,33.26
2022-08-19T07:25:18.301Z,33.46
2022-08-19T07:27:48.773Z,33.50
2022-08-19T07:30:26.436Z,33.61
2022-08-19T07:32:56.918Z,33.70
2022-08-19T07:35:25.728Z,33.73
2022-08-19T07:37:54.766Z,33.78
2022-08-19T07:40:24.815Z,33.83
2022-08-19T07:42:53.258Z,33.89
2022-08-19T07:45:21.877Z,33.97
2022-08-19T07:47:51.300Z,34.01
2022-08-19T07:50:22.292Z,33.91
2022-08-19T07:52:51.478Z,33.73
2022-08-19T07:55:41.202Z,33.54
2022-08-19T07:58:15.507Z,33.37
2022-08-19T08:00:46.412Z,33.18
2022-08-19T08:03:16.508Z,32.98
2022-08-19T08:06:03.727Z,32.74
2022-08-19T08:08:50.816Z,32.44
2022-08-19T08:11:21.783Z,32.18
2022-08-19T08:14:00.995Z,31.99
2022-08-19T08:16:39.771Z,31.86
2022-08-19T08:19:22.948Z,31.73
2022-08-19T08:21:55.676Z,31.74
2022-08-19T08:24:28.254Z,31.79
2022-08-19T08:26:59.876Z,31.86
2022-08-19T08:29:34.766Z,31.96
2022-08-19T08:32:14.843Z,32.10
2022-08-19T08:34:44.552Z,32.17
2022-08-19T08:37:16.012Z,32.21
2022-08-19T08:39:44.784Z,32.26
2022-08-19T08:42:21.234Z,32.24
2022-08-19T08:47:38.150Z,32.18
2022-08-19T08:50:16.751Z,32.16
2022-08-19T08:52:48.485Z,32.13
2022-08-19T08:55:20.318Z,32.12
2022-08-19T08:58:00.286Z,32.13
2022-08-19T09:00:31.325Z,32.14
2022-08-19T09:03:02.203Z,32.13
2022-08-19T09:05:48.646Z,32.09
2022-08-19T09:08:32.221Z,32.07
2022-08-19T09:11:05.439Z,32.04
2022-08-19T09:13:42.363Z,31.97
2022-08-19T09:16:15.926Z,31.98
2022-08-19T09:18:47.375Z,32.03
2022-08-19T09:21:16.610Z,32.08
2022-08-19T09:23:45.820Z,32.10
2022-08-19T09:26:22.335Z,32.06
2022-08-19T09:28:54.865Z,32.07
2022-08-19T09:31:28.621Z,32.10
2022-08-19T09:33:57.750Z,32.13
2022-08-19T09:36:34.565Z,32.12
2022-08-19T09:39:04.362Z,32.15
2022-08-19T09:41:47.679Z,32.17
2022-08-19T09:44:18.105Z,32.21
2022-08-19T09:46:47.766Z,32.24
2022-08-19T09:49:17.908Z,32.25
2022-08-19T09:51:51.153Z,32.30
2022-08-19T09:54:23.646Z,32.39
2022-08-19T09:56:57.203Z,32.44
2022-08-19T10:00:04.900Z,32.50
2022-08-19T10:02:36.427Z,32.58
2022-08-19T10:05:26.957Z,32.66
2022-08-19T10:07:55.635Z,32.76
2022-08-19T10:10:25.325Z,32.83
2022-08-19T10:12:55.465Z,32.88
2022-08-19T10:15:29.050Z,32.89
2022-08-19T10:17:59.671Z,32.84
2022-08-19T10:20:30.560Z,32.83
2022-08-19T10:22:59.695Z,32.83
2022-08-19T10:25:28.201Z,32.81
2022-08-19T10:27:58.093Z,32.78
2022-08-19T10:30:26.469Z,32.73
2022-08-19T10:32:54.778Z,32.72
2022-08-19T10:35:25.277Z,32.69
2022-08-19T10:38:00.263Z,32.63
2022-08-19T10:40:30.645Z,32.64
2022-08-19T10:42:59.189Z,32.64
2022-08-19T10:45:28.291Z,32.67
2022-08-19T10:47:57.208Z,32.70
2022-08-19T10:50:45.487Z,32.71
2022-08-19T10:53:14.731Z,32.74
2022-08-19T10:56:04.047Z,32.71
2022-08-19T10:58:32.803Z,32.65
2022-08-19T11:01:01.257Z,32.63
2022-08-19T11:03:30.616Z,32.60
2022-08-19T11:06:03.618Z,32.57
2022-08-19T11:08:35.167Z,32.56
2022-08-19T11:11:05.127Z,32.57
2022-08-19T11:13:37.880Z,32.53
2022-08-19T11:16:08.945Z,32.47
2022-08-19T11:18:39.721Z,32.44
2022-08-19T11:21:11.008Z,32.43
2022-08-19T11:23:39.472Z,32.45
2022-08-19T11:26:08.072Z,32.51
2022-08-19T11:28:36.702Z,32.52
2022-08-19T11:31:05.425Z,32.55
2022-08-19T11:33:34.134Z,32.55
2022-08-19T11:36:02.933Z,32.55
2022-08-19T11:38:31.314Z,32.53
2022-08-19T11:41:01.948Z,32.50
2022-08-19T11:43:34.383Z,32.47
2022-08-19T11:46:07.623Z,32.50
2022-08-19T11:48:36.357Z,32.53
2022-08-19T11:51:09.172Z,32.54
2022-08-19T11:53:38.673Z,32.55
2022-08-19T11:56:09.056Z,32.60
2022-08-19T11:58:38.031Z,32.62
2022-08-19T12:01:08.593Z,32.66
2022-08-19T12:03:38.552Z,32.67
2022-08-19T12:06:10.563Z,32.66
2022-08-19T12:08:38.940Z,32.67
2022-08-19T12:11:08.403Z,32.66
2022-08-19T12:13:37.345Z,32.65
2022-08-19T12:16:11.854Z,32.66
2022-08-19T12:18:42.063Z,32.66
2022-08-19T12:21:11.451Z,32.62
2022-08-19T12:23:39.904Z,32.53
2022-08-19T12:26:09.855Z,32.48
2022-08-19T12:28:38.842Z,32.44
2022-08-19T12:31:08.361Z,32.41
2022-08-19T12:33:36.738Z,32.42
2022-08-19T12:36:08.337Z,32.44
2022-08-19T12:38:37.679Z,32.45
2022-08-19T12:41:07.912Z,32.44
2022-08-19T12:43:36.919Z,32.42
2022-08-19T12:46:06.239Z,32.40
2022-08-19T12:48:35.372Z,32.37
2022-08-19T12:51:08.832Z,32.36
2022-08-19T12:53:39.066Z,32.37
2022-08-19T12:56:11.495Z,32.39
2022-08-19T12:58:42.133Z,32.42
2022-08-19T13:01:20.360Z,32.40
2022-08-19T13:03:53.219Z,32.38
2022-08-19T13:06:22.142Z,32.36
2022-08-19T13:08:50.824Z,32.33
2022-08-19T13:11:21.327Z,32.30
2022-08-19T13:13:51.613Z,32.26
2022-08-19T13:16:22.259Z,32.23
2022-08-19T13:18:52.548Z,32.21
2022-08-19T13:21:23.694Z,32.21
2022-08-19T13:23:52.796Z,32.22
2022-08-19T13:26:21.666Z,32.23
2022-08-19T13:29:08.921Z,32.26
2022-08-19T13:31:58.855Z,32.29
2022-08-19T13:34:34.333Z,32.30
2022-08-19T13:37:04.659Z,32.27
2022-08-19T13:39:34.783Z,32.23
2022-08-19T13:42:05.104Z,32.22
2022-08-19T13:44:33.888Z,32.20
2022-08-19T13:47:07.192Z,32.21
2022-08-19T13:49:36.684Z,32.22
2022-08-19T13:52:06.646Z,32.23
2022-08-19T13:54:35.307Z,32.23
2022-08-19T13:57:03.931Z,32.24
2022-08-19T13:59:32.871Z,32.25
2022-08-19T14:02:01.655Z,32.26
2022-08-19T14:04:30.024Z,32.26
2022-08-19T14:06:58.498Z,32.23
2022-08-19T14:09:27.275Z,32.22
2022-08-19T14:11:55.896Z,32.23
2022-08-19T14:14:24.473Z,32.28
2022-08-19T14:16:53.138Z,32.27
2022-08-19T14:19:21.712Z,32.27
2022-08-19T14:21:50.169Z,32.27
2022-08-19T14:24:18.545Z,32.26
2022-08-19T14:26:46.933Z,32.25
2022-08-19T14:29:15.385Z,32.26
2022-08-19T14:31:44.389Z,32.28
2022-08-19T14:34:13.102Z,32.26
2022-08-19T14:36:42.357Z,32.23
2022-08-19T14:39:11.966Z,32.20
2022-08-19T14:41:42.224Z,32.16
2022-08-19T14:44:12.763Z,32.14
2022-08-19T14:46:41.713Z,32.14
2022-08-19T14:49:18.820Z,32.12
2022-08-19T14:51:48.034Z,32.10
2022-08-19T14:54:16.724Z,32.08
2022-08-19T14:56:45.673Z,32.04
2022-08-19T14:59:14.382Z,31.99
2022-08-19T15:01:43.454Z,31.94
2022-08-19T15:04:12.581Z,31.91
2022-08-19T15:06:42.792Z,31.90
2022-08-19T15:09:11.491Z,31.87
2022-08-19T15:11:39.836Z,31.84
2022-08-19T15:14:08.263Z,31.80
2022-08-19T15:16:42.035Z,31.77
2022-08-19T15:19:12.169Z,31.75
2022-08-19T15:21:40.613Z,31.75
2022-08-19T15:24:09.754Z,31.76
2022-08-19T15:26:38.174Z,31.76
2022-08-19T15:29:06.658Z,31.77
2022-08-19T15:31:36.114Z,31.77
2022-08-19T15:34:07.360Z,31.76
2022-08-19T15:36:36.389Z,31.76
2022-08-19T15:39:06.725Z,31.76
2022-08-19T15:41:36.973Z,31.75
2022-08-19T15:44:10.252Z,31.73
2022-08-19T15:46:41.937Z,31.72
2022-08-19T15:49:12.099Z,31.72
2022-08-19T15:51:42.501Z,31.70
2022-08-19T15:54:14.377Z,31.70
2022-08-19T15:57:00.746Z,31.67
2022-08-19T15:59:47.870Z,31.63
2022-08-19T16:02:37.225Z,31.58
2022-08-19T16:05:27.345Z,31.54
2022-08-19T16:07:56.380Z,31.51
2022-08-19T16:10:27.120Z,31.48
2022-08-19T16:12:57.215Z,31.46
2022-08-19T16:15:27.361Z,31.45
2022-08-19T16:17:57.213Z,31.44
2022-08-19T16:20:27.294Z,31.42
2022-08-19T16:22:57.827Z,31.38
2022-08-19T16:25:28.909Z,31.32
2022-08-19T16:28:07.482Z,31.26
2022-08-19T16:30:39.092Z,31.20
2022-08-19T16:33:10.494Z,31.15
2022-08-19T16:35:39.091Z,31.09
2022-08-19T16:38:07.521Z,31.04
2022-08-19T16:40:36.229Z,31.00
2022-08-19T16:43:04.978Z,30.96
2022-08-19T16:45:33.375Z,30.92
2022-08-19T16:48:01.826Z,30.88
2022-08-19T16:50:48.381Z,30.83
2022-08-19T16:53:20.645Z,30.77
2022-08-19T16:55:50.276Z,30.73
2022-08-19T16:58:19.244Z,30.68
2022-08-19T17:00:49.415Z,30.65
2022-08-19T17:03:19.098Z,30.62
2022-08-19T17:05:49.687Z,30.58
2022-08-19T17:08:18.886Z,30.54
2022-08-19T17:11:14.712Z,30.49
2022-08-19T17:13:38.311Z,30.44
2022-08-19T17:16:07.465Z,30.39
2022-08-19T17:18:35.913Z,30.34
2022-08-19T17:21:04.573Z,30.30
2022-08-19T17:23:42.925Z,30.25
2022-08-19T17:26:16.936Z,30.20
2022-08-19T17:28:48.791Z,30.16
2022-08-19T17:31:18.432Z,30.10
2022-08-19T17:33:48.356Z,30.03
2022-08-19T17:36:18.584Z,29.95
2022-08-19T17:38:47.154Z,29.87
2022-08-19T17:41:15.893Z,29.83
2022-08-19T17:43:44.504Z,29.77
2022-08-19T17:46:18.170Z,29.71
2022-08-19T17:48:52.732Z,29.65
2022-08-19T17:51:24.698Z,29.57
2022-08-19T17:53:54.526Z,29.50
2022-08-19T17:56:23.328Z,29.43
2022-08-19T17:58:59.978Z,29.39
2022-08-19T18:01:51.798Z,29.35
2022-08-19T18:04:19.607Z,29.32
2022-08-19T18:06:53.588Z,29.28
2022-08-19T18:09:25.697Z,29.24
2022-08-19T18:11:56.784Z,29.21
2022-08-19T18:14:32.964Z,29.16
2022-08-19T18:17:08.381Z,29.11
2022-08-19T18:19:41.329Z,29.06
2022-08-19T18:22:13.346Z,29.02
2022-08-19T18:24:42.339Z,28.97
2022-08-19T18:27:10.674Z,28.92
2022-08-19T18:29:39.750Z,28.87
2022-08-19T18:32:11.961Z,28.83
2022-08-19T18:34:42.401Z,28.79
2022-08-19T18:37:11.345Z,28.75
2022-08-19T18:39:57.957Z,28.70
2022-08-19T18:42:44.823Z,28.66
2022-08-19T18:45:32.073Z,28.62
2022-08-19T18:48:27.381Z,28.57
2022-08-19T18:50:58.526Z,28.53
2022-08-19T18:53:29.268Z,28.48
2022-08-19T18:55:59.059Z,28.44
2022-08-19T18:58:31.550Z,28.40
2022-08-19T19:01:02.554Z,28.37
2022-08-19T19:03:31.011Z,28.33
2022-08-19T19:05:59.439Z,28.28
2022-08-19T19:08:27.974Z,28.24
2022-08-19T19:10:58.338Z,28.20
2022-08-19T19:13:28.132Z,28.16
2022-08-19T19:15:56.743Z,28.13
2022-08-19T19:18:25.416Z,28.08
2022-08-19T19:20:54.563Z,28.04
2022-08-19T19:23:23.454Z,28.00
2022-08-19T19:25:52.359Z,27.97
2022-08-19T19:28:24.674Z,27.93
2022-08-19T19:30:57.913Z,27.89
2022-08-19T19:33:27.014Z,27.84
2022-08-19T19:35:55.653Z,27.79
2022-08-19T19:38:23.993Z,27.75
2022-08-19T19:40:52.401Z,27.71
2022-08-19T19:43:21.223Z,27.69
2022-08-19T19:45:51.450Z,27.66
2022-08-19T19:48:20.040Z,27.62
2022-08-19T19:50:54.159Z,27.60
2022-08-19T19:53:27.015Z,27.58
2022-08-19T19:55:58.205Z,27.54
2022-08-19T19:58:29.130Z,27.50
2022-08-19T20:01:02.039Z,27.47
2022-08-19T20:03:39.441Z,27.42
2022-08-19T20:06:09.822Z,27.39
2022-08-19T20:08:56.757Z,27.35
2022-08-19T20:11:32.515Z,27.32
2022-08-19T20:14:04.484Z,27.27
2022-08-19T20:16:34.031Z,27.23
2022-08-19T20:19:03.458Z,27.19
2022-08-19T20:21:31.954Z,27.15
2022-08-19T20:24:08.773Z,27.12
2022-08-19T20:26:38.166Z,27.09
2022-08-19T20:29:13.809Z,27.06
2022-08-19T20:31:57.958Z,27.04
2022-08-19T20:34:28.739Z,27.03
2022-08-19T20:36:57.174Z,26.99
2022-08-19T20:39:25.687Z,26.98
2022-08-19T20:41:55.760Z,26.97
2022-08-19T20:44:24.674Z,26.96
2022-08-19T20:46:54.225Z,26.95
2022-08-19T20:49:27.121Z,26.93
2022-08-19T20:51:56.380Z,26.89
2022-08-19T20:54:25.384Z,26.84
2022-08-19T20:56:54.247Z,26.80
2022-08-19T20:59:25.279Z,26.76
2022-08-19T21:01:53.903Z,26.74
2022-08-19T21:04:22.418Z,26.73
2022-08-19T21:06:51.337Z,26.71
2022-08-19T21:09:19.812Z,26.71
2022-08-19T21:11:48.667Z,26.68
2022-08-19T21:14:17.899Z,26.68
2022-08-19T21:16:46.732Z,26.67
2022-08-19T21:19:16.312Z,26.65
2022-08-19T21:21:44.744Z,26.63
2022-08-19T21:24:13.408Z,26.63
2022-08-19T21:26:41.991Z,26.62
2022-08-19T21:29:10.504Z,26.61
2022-08-19T21:31:38.937Z,26.61
2022-08-19T21:34:07.458Z,26.59
2022-08-19T21:36:36.286Z,26.59
2022-08-19T21:39:05.433Z,26.59
2022-08-19T21:41:33.845Z,26.59
2022-08-19T21:44:02.469Z,26.57
2022-08-19T21:46:32.418Z,26.53
2022-08-19T21:49:01.402Z,26.49
2022-08-19T21:51:30.375Z,26.46
2022-08-19T21:53:58.768Z,26.41
2022-08-19T21:56:27.264Z,26.37
2022-08-19T21:58:56.042Z,26.34
2022-08-19T22:01:24.485Z,26.30
2022-08-19T22:03:53.452Z,26.28
2022-08-19T22:06:22.486Z,26.27
2022-08-19T22:08:50.969Z,26.27
2022-08-19T22:11:19.466Z,26.25
2022-08-19T22:13:47.861Z,26.24
2022-08-19T22:16:17.525Z,26.22
2022-08-19T22:18:46.529Z,26.21
2022-08-19T22:21:15.366Z,26.18
2022-08-19T22:23:48.875Z,26.16
2022-08-19T22:26:18.439Z,26.12
2022-08-19T22:28:46.938Z,26.09
2022-08-19T22:31:15.851Z,26.05
2022-08-19T22:33:44.588Z,26.01
2022-08-19T22:36:13.539Z,26.00
2022-08-19T22:38:41.957Z,26.01
2022-08-19T22:41:11.362Z,26.01
2022-08-19T22:43:39.851Z,26.02
2022-08-19T22:46:17.383Z,26.03
2022-08-19T22:48:47.303Z,26.04
2022-08-19T22:51:34.752Z,26.04
2022-08-19T22:54:04.355Z,26.04
2022-08-19T22:56:34.239Z,26.04
2022-08-19T22:59:03.245Z,26.03
2022-08-19T23:01:32.136Z,26.03
2022-08-19T23:04:03.764Z,26.03
2022-08-19T23:06:34.112Z,26.04
2022-08-19T23:09:06.545Z,26.04
2022-08-19T23:11:38.247Z,26.04
2022-08-19T23:14:09.859Z,26.04
2022-08-19T23:16:38.324Z,26.01
2022-08-19T23:19:08.544Z,26.00
2022-08-19T23:21:36.968Z,26.00
2022-08-19T23:24:06.782Z,26.01
2022-08-19T23:26:36.094Z,26.03
2022-08-19T23:29:23.676Z,26.08
2022-08-19T23:31:52.270Z,26.12
2022-08-19T23:34:20.697Z,26.16
2022-08-19T23:36:50.080Z,26.20
2022-08-19T23:39:18.870Z,26.22
2022-08-19T23:41:47.368Z,26.22
2022-08-19T23:44:16.606Z,26.19
2022-08-19T23:46:55.092Z,26.17
2022-08-19T23:49:25.641Z,26.14
2022-08-19T23:51:55.376Z,26.12
2022-08-19T23:54:34.395Z,26.11
2022-08-19T23:57:13.406Z,26.09
2022-08-19T23:59:44.944Z,26.06
